THK374 EBBR-EDLW
Flight info
| Callsign | THK374 |
|---|---|
| Flight time | 0h 32m |
| Altitude | 25000 |
| Route | SPI Y862 KENUM N853 DOMEG DOMEG2A |
| Aircraft | A400/H-SDE2E3FGHIJ4J5M1RWXY/LB1D1 |
Departure
| Time | 2026-05-04 08:35 |
|---|---|
| Airport | Brussels Airport (EBBR) |
Arrival
| Time | 2026-05-04 09:07 |
|---|---|
| Airport | Dortmund Airport (EDLW) |
| Time | Latitude | Longitude | Altitude | Speed | Heading |
|---|---|---|---|---|---|
| 2026-05-04 08:17 | 50.90308 | 4.48689 | 145 ft | 0 kts | 335° |
| 2026-05-04 08:28 | 50.90301 | 4.48694 | 145 ft | 2 kts | 335° |
| 2026-05-04 08:28 | 50.90276 | 4.48712 | 146 ft | 6 kts | 335° |
| 2026-05-04 08:28 | 50.90239 | 4.48728 | 147 ft | 5 kts | 24° |
| 2026-05-04 08:29 | 50.90227 | 4.48718 | 148 ft | 0 kts | 59° |
| 2026-05-04 08:33 | 50.90302 | 4.48972 | 148 ft | 20 kts | 63° |
| 2026-05-04 08:33 | 50.90368 | 4.49198 | 146 ft | 25 kts | 65° |
| 2026-05-04 08:35 | 50.90891 | 4.49010 | 144 ft | 72 kts | 241° |
| 2026-05-04 08:35 | 50.90531 | 4.47798 | 176 ft | 171 kts | 245° |
| 2026-05-04 08:35 | 50.89965 | 4.45897 | 595 ft | 210 kts | 244° |
| 2026-05-04 08:35 | 50.89250 | 4.43679 | 1198 ft | 236 kts | 242° |
| 2026-05-04 08:37 | 50.84474 | 4.27524 | 5904 ft | 271 kts | 226° |
| 2026-05-04 08:37 | 50.82920 | 4.25859 | 5997 ft | 272 kts | 202° |
| 2026-05-04 08:37 | 50.81063 | 4.25361 | 6003 ft | 273 kts | 178° |
| 2026-05-04 08:38 | 50.79240 | 4.26121 | 5999 ft | 273 kts | 153° |
| 2026-05-04 08:38 | 50.77774 | 4.28009 | 6001 ft | 274 kts | 129° |
| 2026-05-04 08:38 | 50.76906 | 4.30671 | 6004 ft | 274 kts | 109° |
| 2026-05-04 08:40 | 50.73570 | 4.51339 | 8828 ft | 284 kts | 104° |
| 2026-05-04 08:40 | 50.73073 | 4.54368 | 10196 ft | 287 kts | 104° |
| 2026-05-04 08:40 | 50.72561 | 4.57477 | 11308 ft | 298 kts | 104° |
| 2026-05-04 08:41 | 50.71997 | 4.60667 | 12407 ft | 306 kts | 107° |
| 2026-05-04 08:41 | 50.71371 | 4.63914 | 13534 ft | 312 kts | 107° |
| 2026-05-04 08:41 | 50.70720 | 4.67216 | 14648 ft | 318 kts | 107° |
| 2026-05-04 08:41 | 50.70055 | 4.70576 | 15743 ft | 324 kts | 107° |
| 2026-05-04 08:42 | 50.69376 | 4.73998 | 16821 ft | 329 kts | 107° |
| 2026-05-04 08:42 | 50.68687 | 4.77473 | 17876 ft | 335 kts | 107° |
| 2026-05-04 08:42 | 50.67985 | 4.81005 | 18912 ft | 341 kts | 107° |
| 2026-05-04 08:42 | 50.67270 | 4.84600 | 19987 ft | 346 kts | 107° |
| 2026-05-04 08:43 | 50.66542 | 4.88247 | 21047 ft | 352 kts | 107° |
| 2026-05-04 08:43 | 50.65811 | 4.91911 | 22051 ft | 358 kts | 107° |
| 2026-05-04 08:43 | 50.65055 | 4.95689 | 23012 ft | 363 kts | 108° |
| 2026-05-04 08:43 | 50.64288 | 4.99511 | 23935 ft | 369 kts | 108° |
| 2026-05-04 08:44 | 50.63510 | 5.03385 | 24796 ft | 374 kts | 108° |
| 2026-05-04 08:44 | 50.62718 | 5.07320 | 25581 ft | 379 kts | 108° |
| 2026-05-04 08:46 | 50.63273 | 5.36878 | 28588 ft | 401 kts | 79° |
| 2026-05-04 08:46 | 50.63778 | 5.41212 | 29148 ft | 404 kts | 79° |
| 2026-05-04 08:46 | 50.64269 | 5.45578 | 29654 ft | 406 kts | 80° |
| 2026-05-04 08:46 | 50.64741 | 5.49920 | 29948 ft | 409 kts | 80° |
| 2026-05-04 08:47 | 50.65218 | 5.54411 | 30002 ft | 410 kts | 81° |
| 2026-05-04 08:47 | 50.66134 | 5.63217 | 29999 ft | 410 kts | 81° |
| 2026-05-04 08:48 | 50.67045 | 5.72081 | 30000 ft | 409 kts | 81° |
| 2026-05-04 08:48 | 50.67939 | 5.80826 | 29357 ft | 396 kts | 81° |
| 2026-05-04 08:48 | 50.68376 | 5.85122 | 28448 ft | 397 kts | 81° |
| 2026-05-04 08:49 | 50.68812 | 5.89415 | 27608 ft | 395 kts | 81° |
| 2026-05-04 08:50 | 50.71306 | 6.14311 | 23191 ft | 370 kts | 81° |
| 2026-05-04 08:50 | 50.71707 | 6.18306 | 22471 ft | 366 kts | 79° |
| 2026-05-04 08:51 | 50.72429 | 6.22127 | 21775 ft | 362 kts | 66° |
| 2026-05-04 08:51 | 50.73732 | 6.25478 | 21335 ft | 357 kts | 51° |
| 2026-05-04 08:51 | 50.75357 | 6.28454 | 21086 ft | 358 kts | 47° |
| 2026-05-04 08:51 | 50.77107 | 6.31243 | 20833 ft | 357 kts | 44° |
| 2026-05-04 08:52 | 50.78919 | 6.33911 | 20589 ft | 355 kts | 42° |
| 2026-05-04 08:52 | 50.80725 | 6.36482 | 20336 ft | 354 kts | 41° |
| 2026-05-04 08:52 | 50.82559 | 6.39074 | 20083 ft | 352 kts | 41° |
| 2026-05-04 08:52 | 50.84381 | 6.41664 | 19835 ft | 351 kts | 42° |
| 2026-05-04 08:53 | 50.86164 | 6.44287 | 19585 ft | 350 kts | 44° |
| 2026-05-04 08:54 | 50.98053 | 6.63185 | 15976 ft | 351 kts | 45° |
| 2026-05-04 08:55 | 50.99768 | 6.65931 | 15128 ft | 348 kts | 45° |
| 2026-05-04 08:55 | 51.01463 | 6.68649 | 14330 ft | 344 kts | 45° |
| 2026-05-04 08:55 | 51.03135 | 6.71335 | 13536 ft | 340 kts | 45° |
| 2026-05-04 08:55 | 51.04765 | 6.73956 | 12739 ft | 336 kts | 45° |
| 2026-05-04 08:57 | 51.15351 | 6.91045 | 8726 ft | 289 kts | 45° |
| 2026-05-04 09:01 | 51.36075 | 7.17486 | 3438 ft | 264 kts | 43° |
| 2026-05-04 09:01 | 51.37225 | 7.19764 | 3432 ft | 264 kts | 57° |
| 2026-05-04 09:01 | 51.38137 | 7.22323 | 3429 ft | 265 kts | 61° |
| 2026-05-04 09:01 | 51.39025 | 7.24908 | 3427 ft | 265 kts | 60° |
| 2026-05-04 09:02 | 51.39930 | 7.27472 | 3430 ft | 265 kts | 60° |
| 2026-05-04 09:02 | 51.40845 | 7.30031 | 3428 ft | 265 kts | 60° |
| 2026-05-04 09:02 | 51.41756 | 7.32592 | 3431 ft | 265 kts | 60° |
| 2026-05-04 09:02 | 51.42661 | 7.35156 | 3427 ft | 265 kts | 60° |
| 2026-05-04 09:03 | 51.43547 | 7.37674 | 3417 ft | 249 kts | 60° |
| 2026-05-04 09:03 | 51.44375 | 7.40021 | 3331 ft | 235 kts | 60° |
| 2026-05-04 09:03 | 51.45162 | 7.42253 | 3040 ft | 225 kts | 60° |
| 2026-05-04 09:03 | 51.45916 | 7.44395 | 2723 ft | 217 kts | 60° |
| 2026-05-04 09:04 | 51.46633 | 7.46432 | 2413 ft | 208 kts | 60° |
| 2026-05-04 09:04 | 51.47338 | 7.48434 | 2141 ft | 205 kts | 60° |
| 2026-05-04 09:04 | 51.48033 | 7.50413 | 1867 ft | 203 kts | 60° |
| 2026-05-04 09:04 | 51.48722 | 7.52370 | 1612 ft | 200 kts | 60° |
| 2026-05-04 09:05 | 51.49402 | 7.54303 | 1343 ft | 196 kts | 60° |
| 2026-05-04 09:05 | 51.50053 | 7.56154 | 1089 ft | 183 kts | 60° |
| 2026-05-04 09:05 | 51.50647 | 7.57841 | 837 ft | 165 kts | 60° |
| 2026-05-04 09:05 | 51.51186 | 7.59374 | 639 ft | 150 kts | 60° |
| 2026-05-04 09:06 | 51.51688 | 7.60792 | 459 ft | 144 kts | 60° |
| 2026-05-04 09:07 | 51.51887 | 7.61921 | 419 ft | 28 kts | 239° |
| 2026-05-04 09:08 | 51.51769 | 7.61587 | 418 ft | 17 kts | 241° |
| 2026-05-04 09:08 | 51.51711 | 7.61533 | 422 ft | 9 kts | 196° |
| 2026-05-04 09:08 | 51.51673 | 7.61530 | 429 ft | 0 kts | 159° |